Time;durP1;ratioP1;P1;durP2;ratioP2;P2;SDS_P1;SDS_P2;PMS_P1;PMS_P2;Temp;Humidity;BMP_temperature;BMP_pressure;BME280_temperature;BME280_humidity;BME280_pressure;Samples;Min_cycle;Max_cycle;Signal;HPM_P1;HPM_P2
2022/05/29 00:00:40;;;;;;;;;1.00;1.00;;;;;-142.59;100.00;56100.38;5027222;28;51367;-69
2022/05/29 00:03:06;;;;;;;;;1.00;1.00;;;;;-142.59;100.00;56100.38;5019064;28;49684;-71
2022/05/29 00:05:34;;;;;;;;;1.00;1.00;;;;;-142.59;100.00;56100.38;5020392;28;49752;-69
2022/05/29 00:08:00;;;;;;;;;2.50;1.00;;;;;-142.59;100.00;56100.38;5014886;28;50546;-71
2022/05/29 00:10:25;;;;;;;;;3.00;1.00;;;;;-142.59;100.00;56100.38;5025470;28;50058;-83
2022/05/29 00:12:51;;;;;;;;;1.00;1.00;;;;;-142.59;100.00;56100.38;5027624;28;49834;-72
2022/05/29 00:15:16;;;;;;;;;3.00;2.00;;;;;-142.59;100.00;56100.38;5018816;28;49758;-71
2022/05/29 00:17:43;;;;;;;;;0.00;0.00;;;;;-142.59;100.00;56100.38;5012861;28;49790;-71
2022/05/29 00:20:09;;;;;;;;;0.25;0.25;;;;;-142.59;100.00;56100.38;5013240;28;49840;-72
2022/05/29 00:22:35;;;;;;;;;1.00;1.00;;;;;-142.59;100.00;56100.38;5013073;28;49860;-72
2022/05/29 00:25:04;;;;;;;;;2.75;2.75;;;;;-142.59;100.00;56100.38;5012713;28;49914;-72
2022/05/29 00:27:29;;;;;;;;;2.00;1.00;;;;;-142.59;100.00;56100.38;5013076;28;50270;-72
2022/05/29 00:29:55;;;;;;;;;1.00;1.00;;;;;-142.59;100.00;56100.38;5013388;28;49713;-72
2022/05/29 00:32:20;;;;;;;;;0.25;0.25;;;;;-142.59;100.00;56100.38;5013416;28;50044;-74
2022/05/29 00:34:45;;;;;;;;;2.00;2.00;;;;;-142.59;100.00;56100.38;5014721;28;49955;-72
2022/05/29 00:37:11;;;;;;;;;1.25;1.00;;;;;-142.59;100.00;56100.38;5014474;28;50618;-73
2022/05/29 00:39:37;;;;;;;;;2.00;2.00;;;;;-142.59;100.00;56100.38;5009939;28;49813;-72
2022/05/29 00:42:08;;;;;;;;;2.00;1.50;;;;;-142.59;100.00;56100.38;5034051;28;49717;-72
2022/05/29 00:44:34;;;;;;;;;2.00;2.00;;;;;-142.59;100.00;56100.38;5014895;28;49576;-72
2022/05/29 00:47:18;;;;;;;;;1.00;1.00;;;;;-142.59;100.00;56100.38;5033705;28;50980;-72
2022/05/29 00:49:47;;;;;;;;;0.00;0.00;;;;;-142.59;100.00;56100.38;5033570;28;49947;-72
2022/05/29 00:52:25;;;;;;;;;1.00;1.00;;;;;-142.59;100.00;56100.38;5032648;28;49811;-72
2022/05/29 00:55:15;;;;;;;;;2.25;2.25;;;;;-142.59;100.00;56100.38;5033874;28;49861;-72
2022/05/29 00:57:45;;;;;;;;;1.00;1.00;;;;;-142.59;100.00;56100.38;5033421;28;49939;-72
2022/05/29 01:00:17;;;;;;;;;2.25;2.25;;;;;-142.59;100.00;56100.38;5014546;28;49619;-72
2022/05/29 01:02:45;;;;;;;;;4.25;1.75;;;;;-142.59;100.00;56100.38;5027280;28;49916;-72
2022/05/29 01:05:13;;;;;;;;;0.00;0.00;;;;;-142.59;100.00;56100.38;5033791;28;49908;-72
2022/05/29 01:07:43;;;;;;;;;0.00;0.00;;;;;-142.59;100.00;56100.38;5033206;28;49688;-71
2022/05/29 01:10:09;;;;;;;;;1.50;1.50;;;;;-142.59;100.00;56100.38;5015509;28;49848;-72
2022/05/29 01:13:06;;;;;;;;;1.75;1.00;;;;;-142.59;100.00;56100.38;5033583;28;49744;-72
2022/05/29 01:15:56;;;;;;;;;2.00;1.00;;;;;-142.59;100.00;56100.38;5016030;28;49651;-71
2022/05/29 01:18:30;;;;;;;;;2.00;2.00;;;;;-142.59;100.00;56100.38;5033263;28;49989;-72
2022/05/29 01:21:08;;;;;;;;;1.00;1.00;;;;;-142.59;100.00;56100.38;5015280;28;49884;-71
2022/05/29 01:24:04;;;;;;;;;0.00;0.00;;;;;-142.59;100.00;56100.38;5033590;28;49858;-72
2022/05/29 01:27:25;;;;;;;;;1.75;1.75;;;;;-142.59;100.00;56100.38;5033573;28;49754;-72
2022/05/29 01:30:05;;;;;;;;;0.00;0.00;;;;;-142.59;100.00;56100.38;5003936;28;49967;-72
2022/05/29 01:32:55;;;;;;;;;1.00;1.00;;;;;-142.59;100.00;56100.38;5032995;28;49824;-72
2022/05/29 01:35:32;;;;;;;;;0.25;0.25;;;;;-142.59;100.00;56100.38;5033059;28;49690;-72
2022/05/29 01:38:00;;;;;;;;;3.25;3.25;;;;;-142.59;100.00;56100.38;5033253;28;49708;-72
2022/05/29 01:40:34;;;;;;;;;1.00;1.00;;;;;-142.59;100.00;56100.38;5032859;28;50674;-72
2022/05/29 01:43:15;;;;;;;;;2.00;2.00;;;;;-142.59;100.00;56100.38;5033070;28;49790;-72
2022/05/29 01:45:55;;;;;;;;;1.25;1.00;;;;;-142.59;100.00;56100.38;5032892;28;49558;-72
2022/05/29 01:48:35;;;;;;;;;1.75;1.75;;;;;-142.59;100.00;56100.38;5033064;28;49854;-72
2022/05/29 01:51:11;;;;;;;;;1.00;1.00;;;;;-142.59;100.00;56100.38;5032567;28;50858;-72
2022/05/29 01:53:41;;;;;;;;;2.25;2.00;;;;;-142.59;100.00;56100.38;5015443;28;49686;-72
2022/05/29 01:56:27;;;;;;;;;1.25;1.25;;;;;-142.59;100.00;56100.38;5013615;28;49789;-72
2022/05/29 01:58:58;;;;;;;;;3.00;2.00;;;;;-142.59;100.00;56100.38;5029235;28;49650;-72
2022/05/29 02:01:30;;;;;;;;;3.00;1.25;;;;;-142.59;100.00;56100.38;5032386;28;51404;-72
2022/05/29 02:04:01;;;;;;;;;1.00;1.00;;;;;-142.59;100.00;56100.38;5032713;28;49875;-71
2022/05/29 02:07:47;;;;;;;;;2.00;2.00;;;;;-142.59;100.00;56100.38;5032282;28;49914;-71
2022/05/29 02:09:22;;;;;;;;;2.75;2.75;;;;;-142.59;100.00;56100.38;5032656;28;49941;-72
2022/05/29 02:11:54;;;;;;;;;1.50;1.50;;;;;-142.59;100.00;56100.38;5032379;28;49660;-72
2022/05/29 02:14:26;;;;;;;;;2.00;2.00;;;;;-142.59;100.00;56100.38;5032441;28;49716;-72
2022/05/29 02:17:03;;;;;;;;;2.25;2.00;;;;;-142.59;100.00;56100.38;5032498;28;49825;-72
2022/05/29 02:19:34;;;;;;;;;3.25;2.00;;;;;-142.59;100.00;56100.38;5032664;28;49824;-72
2022/05/29 02:22:17;;;;;;;;;2.00;2.00;;;;;-142.59;100.00;56100.38;5032192;28;49848;-71
2022/05/29 02:24:57;;;;;;;;;1.00;1.00;;;;;-142.59;100.00;56100.38;5032383;28;49543;-72
2022/05/29 02:27:28;;;;;;;;;2.25;2.25;;;;;-142.59;100.00;56100.38;5032245;28;49762;-72
2022/05/29 02:29:55;;;;;;;;;1.50;1.50;;;;;-142.59;100.00;56100.38;5032542;28;49529;-72
2022/05/29 02:32:27;;;;;;;;;1.50;1.50;;;;;-142.59;100.00;56100.38;5032247;28;49699;-72
2022/05/29 02:34:59;;;;;;;;;1.00;1.00;;;;;-142.59;100.00;56100.38;5032139;28;49863;-73
2022/05/29 02:37:45;;;;;;;;;3.75;2.25;;;;;-142.59;100.00;56100.38;5032109;28;49882;-72
2022/05/29 02:40:31;;;;;;;;;2.00;2.00;;;;;-142.59;100.00;56100.38;5032483;28;49788;-72
2022/05/29 02:43:03;;;;;;;;;2.00;1.75;;;;;-142.59;100.00;56100.38;5032390;28;49551;-72
2022/05/29 02:46:02;;;;;;;;;5.75;4.00;;;;;-142.59;100.00;56100.38;5032285;28;49612;-71
2022/05/29 02:48:50;;;;;;;;;2.00;2.00;;;;;-142.59;100.00;56100.38;5033586;28;49654;-71
2022/05/29 02:51:35;;;;;;;;;1.25;1.25;;;;;-142.59;100.00;56100.38;5016567;28;49746;-71
2022/05/29 02:54:00;;;;;;;;;0.75;0.75;;;;;-142.59;100.00;56100.38;5016448;28;49742;-72
2022/05/29 02:56:26;;;;;;;;;1.75;1.00;;;;;-142.59;100.00;56100.38;5016173;28;49748;-72
2022/05/29 02:58:58;;;;;;;;;2.00;2.00;;;;;-142.59;100.00;56100.38;5016497;28;49785;-72
2022/05/29 03:02:02;;;;;;;;;3.50;1.50;;;;;-142.59;100.00;56100.38;5016654;28;49651;-71
2022/05/29 03:04:40;;;;;;;;;2.50;1.25;;;;;-142.59;100.00;56100.38;4968321;28;49944;-71
2022/05/29 03:07:24;;;;;;;;;3.00;2.25;;;;;-142.59;100.00;56100.38;5027363;28;50731;-72
2022/05/29 03:10:19;;;;;;;;;3.00;3.00;;;;;-142.59;100.00;56100.38;5035565;28;49531;-75
2022/05/29 03:13:12;;;;;;;;;2.00;2.00;;;;;-142.59;100.00;56100.38;5035555;28;49781;-72
2022/05/29 03:16:09;;;;;;;;;2.00;2.00;;;;;-142.59;100.00;56100.38;5035040;28;49775;-74
2022/05/29 03:18:50;;;;;;;;;3.25;3.25;;;;;-142.59;100.00;56100.38;5035045;28;49672;-72
2022/05/29 03:21:27;;;;;;;;;4.00;2.00;;;;;-142.59;100.00;56100.38;5035006;28;49729;-72
2022/05/29 03:23:59;;;;;;;;;4.00;2.75;;;;;-142.59;100.00;56100.38;5035404;28;49766;-72
2022/05/29 03:26:38;;;;;;;;;2.00;2.00;;;;;-142.59;100.00;56100.38;5034787;28;51438;-72
2022/05/29 03:29:32;;;;;;;;;1.50;1.50;;;;;-142.59;100.00;56100.38;5035120;28;49577;-71
2022/05/29 03:31:58;;;;;;;;;2.00;2.00;;;;;-142.59;100.00;56100.38;5034248;28;49594;-72
2022/05/29 03:34:23;;;;;;;;;2.75;2.75;;;;;-142.59;100.00;56100.38;5035110;28;50441;-72
2022/05/29 03:36:51;;;;;;;;;3.00;3.00;;;;;-142.59;100.00;56100.38;5034409;28;50474;-73
2022/05/29 03:39:17;;;;;;;;;3.00;2.00;;;;;-142.59;100.00;56100.38;5034836;28;49858;-72
2022/05/29 03:41:45;;;;;;;;;4.00;3.00;;;;;-142.59;100.00;56100.38;5035071;28;49909;-72
2022/05/29 03:44:12;;;;;;;;;4.00;4.00;;;;;-142.59;100.00;56100.38;5034893;28;49745;-75
2022/05/29 03:46:39;;;;;;;;;3.25;3.25;;;;;-142.59;100.00;56100.38;5034498;28;49615;-72
2022/05/29 03:49:06;;;;;;;;;3.75;1.25;;;;;-142.59;100.00;56100.38;5034657;28;49836;-72
2022/05/29 03:51:32;;;;;;;;;2.00;2.00;;;;;-142.59;100.00;56100.38;5034609;28;49736;-72
2022/05/29 03:53:57;;;;;;;;;2.00;2.00;;;;;-142.59;100.00;56100.38;5017135;28;49780;-73
2022/05/29 03:56:23;;;;;;;;;2.00;2.00;;;;;-142.59;100.00;56100.38;5034433;28;50793;-73
2022/05/29 03:58:48;;;;;;;;;5.00;3.50;;;;;-142.59;100.00;56100.38;5034053;28;49721;-74
2022/05/29 04:01:13;;;;;;;;;4.00;3.00;;;;;-142.59;100.00;56100.38;5033238;28;49630;-69
2022/05/29 04:03:38;;;;;;;;;2.50;2.00;;;;;-142.59;100.00;56100.38;5034857;28;49742;-69
2022/05/29 04:06:04;;;;;;;;;1.25;1.25;;;;;-142.59;100.00;56100.38;5034158;28;50370;-68
2022/05/29 04:13:58;;;;;;;;;2.75;2.75;;;;;-142.59;100.00;56100.38;5034630;28;49598;-68
2022/05/29 04:16:24;;;;;;;;;2.00;2.00;;;;;-142.59;100.00;56100.38;5034212;28;50355;-65
2022/05/29 04:18:49;;;;;;;;;3.00;1.50;;;;;-142.59;100.00;56100.38;5034362;28;49709;-66
2022/05/29 04:21:14;;;;;;;;;2.00;2.00;;;;;-142.59;100.00;56100.38;5034109;28;49622;-66
2022/05/29 04:23:40;;;;;;;;;3.50;3.50;;;;;-142.59;100.00;56100.38;5025048;28;49526;-67
2022/05/29 04:26:06;;;;;;;;;2.75;2.75;;;;;-142.59;100.00;56100.38;5015109;28;50663;-66
2022/05/29 04:28:32;;;;;;;;;1.50;1.50;;;;;-142.59;100.00;56100.38;5015070;28;49829;-66
2022/05/29 04:30:57;;;;;;;;;4.25;3.00;;;;;-142.59;100.00;56100.38;5022530;28;50232;-67
2022/05/29 04:33:24;;;;;;;;;5.25;2.75;;;;;-142.59;100.00;56100.38;5015046;28;49847;-67
2022/05/29 04:35:51;;;;;;;;;2.00;2.00;;;;;-142.59;100.00;56100.38;5014550;28;50543;-66
2022/05/29 04:38:18;;;;;;;;;2.25;2.00;;;;;-142.59;100.00;56100.38;5014879;28;50866;-66
2022/05/29 04:40:44;;;;;;;;;2.75;2.75;;;;;-142.59;100.00;56100.38;5015080;28;49892;-66
2022/05/29 04:43:10;;;;;;;;;5.75;3.75;;;;;-142.59;100.00;56100.38;5015178;28;49916;-66
2022/05/29 04:45:38;;;;;;;;;2.75;2.75;;;;;-142.59;100.00;56100.38;5014688;28;50452;-66
2022/05/29 04:48:04;;;;;;;;;3.75;3.00;;;;;-142.59;100.00;56100.38;5014646;28;49816;-66
2022/05/29 04:50:29;;;;;;;;;4.00;4.00;;;;;-142.59;100.00;56100.38;5014555;28;49751;-66
2022/05/29 04:52:55;;;;;;;;;3.50;3.50;;;;;-142.59;100.00;56100.38;5014942;28;49683;-65
2022/05/29 04:55:20;;;;;;;;;2.75;1.75;;;;;-142.59;100.00;56100.38;5027297;28;50500;-67
2022/05/29 04:57:45;;;;;;;;;4.00;3.00;;;;;-142.59;100.00;56100.38;5033730;28;49698;-66
2022/05/29 05:00:11;;;;;;;;;2.75;1.25;;;;;-142.59;100.00;56100.38;5033822;28;49854;-67
2022/05/29 05:02:37;;;;;;;;;2.00;2.00;;;;;-142.59;100.00;56100.38;5033732;28;50088;-67
2022/05/29 05:05:04;;;;;;;;;4.00;4.00;;;;;-142.59;100.00;56100.38;5015620;28;51456;-66
2022/05/29 05:07:29;;;;;;;;;2.50;2.50;;;;;-142.59;100.00;56100.38;5033034;28;49951;-67
2022/05/29 05:09:54;;;;;;;;;2.00;2.00;;;;;-142.59;100.00;56100.38;5033812;28;49856;-67
2022/05/29 05:12:20;;;;;;;;;2.75;2.75;;;;;-142.59;100.00;56100.38;5033375;28;49780;-66
2022/05/29 05:14:45;;;;;;;;;4.00;2.50;;;;;-142.59;100.00;56100.38;5033467;28;50327;-67
2022/05/29 05:17:10;;;;;;;;;3.00;3.00;;;;;-142.59;100.00;56100.38;5033475;28;49744;-66
2022/05/29 05:19:36;;;;;;;;;1.00;1.00;;;;;-142.59;100.00;56100.38;5015798;28;49685;-67
2022/05/29 05:22:03;;;;;;;;;2.75;2.00;;;;;-142.59;100.00;56100.38;5033226;28;50184;-67
2022/05/29 05:24:29;;;;;;;;;5.50;4.00;;;;;-142.59;100.00;56100.38;5033357;28;51019;-67
2022/05/29 05:26:56;;;;;;;;;2.75;2.75;;;;;-142.59;100.00;56100.38;5033187;28;49993;-66
2022/05/29 05:29:22;;;;;;;;;4.50;4.50;;;;;-142.59;100.00;56100.38;5033381;28;49729;-67
2022/05/29 05:31:47;;;;;;;;;1.00;1.00;;;;;-142.59;100.00;56100.38;5033553;28;49955;-66
2022/05/29 05:34:12;;;;;;;;;2.50;2.00;;;;;-142.59;100.00;56100.38;5015441;28;49866;-67
2022/05/29 05:36:38;;;;;;;;;2.00;2.00;;;;;-142.59;100.00;56100.38;5032754;28;49882;-67
2022/05/29 05:39:04;;;;;;;;;3.00;3.00;;;;;-142.59;100.00;56100.38;5033213;28;49764;-67
2022/05/29 05:41:29;;;;;;;;;1.50;1.50;;;;;-142.59;100.00;56100.38;5033548;28;49811;-66
2022/05/29 05:43:54;;;;;;;;;1.25;1.25;;;;;-142.59;100.00;56100.38;5032915;28;50419;-67
2022/05/29 05:46:20;;;;;;;;;2.00;2.00;;;;;-142.59;100.00;56100.38;5033300;28;49662;-66
2022/05/29 05:48:45;;;;;;;;;1.75;1.75;;;;;-142.59;100.00;56100.38;5033008;28;49952;-66
2022/05/29 05:51:12;;;;;;;;;4.00;4.00;;;;;-142.59;100.00;56100.38;5033115;28;50098;-66
2022/05/29 05:53:39;;;;;;;;;4.25;2.50;;;;;-142.59;100.00;56100.38;5032573;28;49715;-68
2022/05/29 05:56:08;;;;;;;;;1.00;1.00;;;;;-142.59;100.00;56100.38;5033008;28;49775;-67
2022/05/29 05:58:33;;;;;;;;;2.75;1.00;;;;;-142.59;100.00;56100.38;5032872;28;49820;-66
2022/05/29 06:01:03;;;;;;;;;5.25;4.00;;;;;-142.59;100.00;56100.38;5032990;28;49747;-67
2022/05/29 06:03:29;;;;;;;;;2.75;1.00;;;;;-142.59;100.00;56100.38;5032427;28;49699;-66
2022/05/29 06:05:54;;;;;;;;;1.50;1.50;;;;;-142.59;100.00;56100.38;5032805;28;49639;-66
2022/05/29 06:08:20;;;;;;;;;2.25;2.25;;;;;-142.59;100.00;56100.38;5032503;28;49817;-66
2022/05/29 06:10:45;;;;;;;;;1.00;1.00;;;;;-142.59;100.00;56100.38;5032895;28;49531;-66
2022/05/29 06:13:11;;;;;;;;;1.00;1.00;;;;;-142.59;100.00;56100.38;5032547;28;50802;-65
2022/05/29 06:15:36;;;;;;;;;1.50;1.50;;;;;-142.59;100.00;56100.38;5032736;28;49580;-66
2022/05/29 06:18:01;;;;;;;;;3.00;2.00;;;;;-142.59;100.00;56100.38;5032600;28;50292;-66
2022/05/29 06:20:27;;;;;;;;;2.00;2.00;;;;;-142.59;100.00;56100.38;5032933;28;49673;-66
2022/05/29 06:22:52;;;;;;;;;2.75;1.00;;;;;-142.59;100.00;56100.38;5032774;28;49789;-66
2022/05/29 06:25:18;;;;;;;;;2.00;2.00;;;;;-142.59;100.00;56100.38;5036260;28;49851;-66
2022/05/29 06:27:45;;;;;;;;;2.00;2.00;;;;;-142.59;100.00;56100.38;5036235;28;49792;-67
2022/05/29 06:30:14;;;;;;;;;1.00;1.00;;;;;-142.59;100.00;56100.38;5018756;28;49982;-66
2022/05/29 06:32:40;;;;;;;;;2.25;2.25;;;;;-142.59;100.00;56100.38;5035867;28;49755;-67
2022/05/29 06:35:09;;;;;;;;;1.00;1.00;;;;;-142.59;100.00;56100.38;5035763;28;49953;-67
2022/05/29 06:37:36;;;;;;;;;1.75;1.75;;;;;-142.59;100.00;56100.38;5035834;28;49863;-67
2022/05/29 06:40:03;;;;;;;;;2.50;2.25;;;;;-142.59;100.00;56100.38;5036119;28;49781;-67
2022/05/29 06:42:28;;;;;;;;;2.00;2.00;;;;;-142.59;100.00;56100.38;5035795;28;50710;-67
2022/05/29 06:44:53;;;;;;;;;3.00;1.25;;;;;-142.59;100.00;56100.38;5036002;28;49839;-67
2022/05/29 06:47:19;;;;;;;;;2.75;2.50;;;;;-142.59;100.00;56100.38;5035648;28;49700;-67
2022/05/29 06:49:47;;;;;;;;;1.00;1.00;;;;;-142.59;100.00;56100.38;5036016;28;49862;-67
2022/05/29 06:52:13;;;;;;;;;1.00;1.00;;;;;-142.59;100.00;56100.38;5035707;28;51305;-67
2022/05/29 06:54:38;;;;;;;;;4.00;3.00;;;;;-142.59;100.00;56100.38;5035320;28;49943;-67
2022/05/29 06:57:06;;;;;;;;;1.00;1.00;;;;;-142.59;100.00;56100.38;5035952;28;50742;-67
2022/05/29 07:07:58;;;;;;;;;1.50;1.50;;;;;-142.59;100.00;56100.38;5035247;28;49753;-68
2022/05/29 07:10:33;;;;;;;;;5.00;2.25;;;;;-142.59;100.00;56100.38;5035686;28;49802;-68
2022/05/29 07:13:00;;;;;;;;;0.75;0.00;;;;;-142.59;100.00;56100.38;5035063;28;50782;-68
2022/05/29 07:15:26;;;;;;;;;1.50;1.25;;;;;-142.59;100.00;56100.38;5035470;28;49795;-68
2022/05/29 07:17:51;;;;;;;;;1.50;1.50;;;;;-142.59;100.00;56100.38;5035462;28;49728;-68
2022/05/29 07:20:17;;;;;;;;;0.25;0.25;;;;;-142.59;100.00;56100.38;5035640;28;49716;-68
2022/05/29 07:22:43;;;;;;;;;1.00;1.00;;;;;-142.59;100.00;56100.38;5034736;28;51423;-68
2022/05/29 07:25:11;;;;;;;;;1.00;1.00;;;;;-142.59;100.00;56100.38;5035349;28;49736;-69
2022/05/29 07:27:37;;;;;;;;;0.75;0.75;;;;;-142.59;100.00;56100.38;5035253;28;49899;-69
2022/05/29 07:30:04;;;;;;;;;3.00;1.00;;;;;-142.59;100.00;56100.38;5035464;28;49936;-68
2022/05/29 07:32:30;;;;;;;;;3.00;1.00;;;;;-142.59;100.00;56100.38;5034976;28;49771;-68
2022/05/29 07:34:56;;;;;;;;;2.00;2.00;;;;;-142.59;100.00;56100.38;5034721;28;49761;-68
2022/05/29 07:37:22;;;;;;;;;0.50;0.50;;;;;-142.59;100.00;56100.38;5034830;28;49621;-70
2022/05/29 07:39:50;;;;;;;;;1.25;1.25;;;;;-142.59;100.00;56100.38;5035677;28;50026;-68
2022/05/29 07:45:00;;;;;;;;;2.50;1.25;;;;;-142.59;100.00;56100.38;5030945;28;49614;-68
2022/05/29 07:47:27;;;;;;;;;1.50;1.00;;;;;-142.59;100.00;56100.38;5034807;28;49875;-68
2022/05/29 07:49:54;;;;;;;;;4.75;0.75;;;;;-142.59;100.00;56100.38;5035066;28;49736;-68
2022/05/29 07:52:19;;;;;;;;;0.75;0.75;;;;;-142.59;100.00;56100.38;5034430;28;50733;-68
2022/05/29 07:54:45;;;;;;;;;0.00;0.00;;;;;-142.59;100.00;56100.38;5034701;28;50707;-67
2022/05/29 07:57:11;;;;;;;;;1.00;1.00;;;;;-142.59;100.00;56100.38;5034873;28;49634;-71
2022/05/29 07:59:36;;;;;;;;;3.75;1.75;;;;;-142.59;100.00;56100.38;5034877;28;49666;-68
2022/05/29 08:02:02;;;;;;;;;1.25;1.25;;;;;-142.59;100.00;56100.38;5034332;28;49840;-69
2022/05/29 08:04:27;;;;;;;;;1.75;1.75;;;;;-142.59;100.00;56100.38;5034929;28;49765;-68
2022/05/29 08:06:53;;;;;;;;;1.00;1.00;;;;;-142.59;100.00;56100.38;5034611;28;49748;-68
2022/05/29 08:09:19;;;;;;;;;0.25;0.25;;;;;-142.59;100.00;56100.38;5034536;28;49695;-71
2022/05/29 08:11:44;;;;;;;;;3.00;1.50;;;;;-142.59;100.00;56100.38;5034543;28;49637;-69
2022/05/29 08:14:09;;;;;;;;;2.00;2.00;;;;;-142.59;100.00;56100.38;5034495;28;49795;-72
2022/05/29 08:16:36;;;;;;;;;1.00;1.00;;;;;-142.59;100.00;56100.38;5016812;28;49734;-68
2022/05/29 08:19:02;;;;;;;;;1.50;1.00;;;;;-142.59;100.00;56100.38;5034599;28;50076;-70
2022/05/29 08:21:28;;;;;;;;;1.00;1.00;;;;;-142.59;100.00;56100.38;5034285;28;49645;-70
2022/05/29 08:32:05;;;;;;;;;2.75;1.50;;;;;-142.59;100.00;56100.38;5033899;28;49752;-68
2022/05/29 08:34:30;;;;;;;;;1.00;1.00;;;;;-142.59;100.00;56100.38;5033906;28;49864;-69
2022/05/29 08:36:56;;;;;;;;;1.25;0.25;;;;;-142.59;100.00;56100.38;5016177;28;49737;-69
2022/05/29 08:39:22;;;;;;;;;1.00;1.00;;;;;-142.59;100.00;56100.38;5034232;28;49775;-69
2022/05/29 08:41:52;;;;;;;;;1.00;1.00;;;;;-142.59;100.00;56100.38;5033802;28;50721;-72
2022/05/29 08:44:27;;;;;;;;;2.25;1.00;;;;;-142.59;100.00;56100.38;5033987;28;49944;-70
2022/05/29 08:47:00;;;;;;;;;1.00;1.00;;;;;-142.59;100.00;56100.38;5032950;28;49649;-77
2022/05/29 08:49:32;;;;;;;;;1.00;1.00;;;;;-142.59;100.00;56100.38;5034162;28;49663;-68
2022/05/29 08:51:57;;;;;;;;;11.50;9.75;;;;;-142.59;100.00;56100.38;5033810;28;51046;-69
2022/05/29 08:55:10;;;;;;;;;2.50;2.50;;;;;-142.59;100.00;56100.38;5033716;28;49858;-69
2022/05/29 08:58:01;;;;;;;;;1.00;1.00;;;;;-142.59;100.00;56100.38;4972751;28;49672;-69
2022/05/29 09:00:42;;;;;;;;;0.25;0.00;;;;;-142.59;100.00;56100.38;5033940;28;50047;-68
2022/05/29 09:03:29;;;;;;;;;3.00;1.50;;;;;-142.59;100.00;56100.38;5033338;28;50829;-69
2022/05/29 09:05:58;;;;;;;;;1.00;1.00;;;;;-142.59;100.00;56100.38;5016085;28;49712;-69
2022/05/29 09:08:32;;;;;;;;;1.00;1.00;;;;;-142.59;100.00;56100.38;5033502;28;49749;-68
2022/05/29 09:11:06;;;;;;;;;1.25;1.00;;;;;-142.59;100.00;56100.38;5033793;28;49724;-69
2022/05/29 09:13:40;;;;;;;;;3.75;2.00;;;;;-142.59;100.00;56100.38;5033692;28;51029;-68
2022/05/29 09:16:10;;;;;;;;;2.75;2.00;;;;;-142.59;100.00;56100.38;5028058;28;49881;-69
2022/05/29 09:18:40;;;;;;;;;8.00;7.00;;;;;-142.59;100.00;56100.38;5033653;28;49821;-69
2022/05/29 09:21:11;;;;;;;;;7.00;5.25;;;;;-142.59;100.00;56100.38;5033685;28;49717;-68
2022/05/29 09:23:58;;;;;;;;;5.00;5.00;;;;;-142.59;100.00;56100.38;5033073;28;51467;-69
2022/05/29 09:26:29;;;;;;;;;5.00;4.00;;;;;-142.59;100.00;56100.38;5033108;28;49940;-71
2022/05/29 09:28:56;;;;;;;;;1.75;1.75;;;;;-142.59;100.00;56100.38;5015326;28;49718;-76
2022/05/29 09:31:26;;;;;;;;;5.00;1.00;;;;;-142.59;100.00;56100.38;5033556;28;49738;-69
2022/05/29 09:33:52;;;;;;;;;1.50;1.00;;;;;-142.59;100.00;56100.38;5032724;28;50838;-74
2022/05/29 09:36:34;;;;;;;;;0.50;0.50;;;;;-142.59;100.00;56100.38;5033358;28;49863;-69
2022/05/29 09:39:11;;;;;;;;;2.00;2.00;;;;;-142.59;100.00;56100.38;5033157;28;49843;-68
2022/05/29 09:42:02;;;;;;;;;5.75;5.75;;;;;-142.59;100.00;56100.38;5033228;28;49662;-68
2022/05/29 09:44:28;;;;;;;;;3.25;1.00;;;;;-142.59;100.00;56100.38;5029047;28;50361;-68
2022/05/29 09:46:55;;;;;;;;;3.00;3.00;;;;;-142.59;100.00;56100.38;5032836;28;49666;-68
2022/05/29 09:49:45;;;;;;;;;3.00;2.00;;;;;-142.59;100.00;56100.38;5033140;28;49788;-69
2022/05/29 09:52:34;;;;;;;;;6.75;6.75;;;;;-142.59;100.00;56100.38;5033039;28;49650;-68
2022/05/29 09:55:05;;;;;;;;;0.75;0.50;;;;;-142.59;100.00;56100.38;5029641;28;50433;-68
2022/05/29 09:57:52;;;;;;;;;4.00;4.00;;;;;-142.59;100.00;56100.38;5032858;28;49702;-68
2022/05/29 10:00:51;;;;;;;;;1.00;1.00;;;;;-142.59;100.00;56100.38;5032925;28;49712;-68
2022/05/29 10:03:38;;;;;;;;;3.00;3.00;;;;;-142.59;100.00;56100.38;5031589;28;49916;-68
2022/05/29 10:06:16;;;;;;;;;7.00;7.00;;;;;-142.59;100.00;56100.38;5032647;28;50040;-68
2022/05/29 10:08:44;;;;;;;;;4.00;4.00;;;;;-142.59;100.00;56100.38;5032598;28;49631;-69
2022/05/29 10:11:28;;;;;;;;;17.00;15.50;;;;;-142.59;100.00;56100.38;5032384;28;49958;-68
2022/05/29 10:13:54;;;;;;;;;12.75;11.50;;;;;-142.59;100.00;56100.38;5032670;28;49849;-68
2022/05/29 10:16:37;;;;;;;;;16.00;13.25;;;;;-142.59;100.00;56100.38;5032445;28;49764;-68
2022/05/29 10:19:08;;;;;;;;;3.00;3.00;;;;;-142.59;100.00;56100.38;5032680;28;49820;-68
2022/05/29 10:21:50;;;;;;;;;5.00;4.00;;;;;-142.59;100.00;56100.38;5032408;28;50048;-69
2022/05/29 10:24:31;;;;;;;;;7.50;5.50;;;;;-142.59;100.00;56100.38;5013354;28;49844;-69
2022/05/29 10:27:00;;;;;;;;;11.50;11.50;;;;;-142.59;100.00;56100.38;5013165;28;50345;-69
2022/05/29 10:29:29;;;;;;;;;8.75;8.25;;;;;-142.59;100.00;56100.38;5013613;28;49582;-69
2022/05/29 10:31:57;;;;;;;;;19.00;18.75;;;;;-142.59;100.00;56100.38;4995557;28;49695;-69
2022/05/29 10:34:31;;;;;;;;;38.00;33.25;;;;;-142.59;100.00;56100.38;5013316;28;49742;-69
2022/05/29 10:36:58;;;;;;;;;1.50;1.50;;;;;-142.59;100.00;56100.38;5013051;28;49721;-69
2022/05/29 10:39:31;;;;;;;;;2.00;2.00;;;;;-142.59;100.00;56100.38;5013378;28;49667;-69
2022/05/29 10:41:58;;;;;;;;;3.00;3.00;;;;;-142.59;100.00;56100.38;5013093;28;49639;-68
2022/05/29 10:44:39;;;;;;;;;4.25;3.75;;;;;-142.59;100.00;56100.38;5013221;28;49891;-70
2022/05/29 10:47:16;;;;;;;;;7.75;7.25;;;;;-142.59;100.00;56100.38;5012978;28;49795;-69
2022/05/29 10:50:09;;;;;;;;;3.00;3.00;;;;;-142.59;100.00;56100.38;5026247;28;49807;-69
2022/05/29 10:53:11;;;;;;;;;3.75;3.00;;;;;-142.59;100.00;56100.38;5028985;28;49913;-69
2022/05/29 10:55:46;;;;;;;;;2.00;2.00;;;;;-142.59;100.00;56100.38;5025415;28;49770;-70
2022/05/29 10:58:30;;;;;;;;;2.00;2.00;;;;;-142.59;100.00;56100.38;5025629;28;50568;-69
2022/05/29 11:03:17;;;;;;;;;1.00;1.00;;;;;-142.59;100.00;56100.38;5012820;28;49941;-71
2022/05/29 11:04:42;;;;;;;;;7.00;2.75;;;;;-142.59;100.00;56100.38;5027753;28;49808;-70
2022/05/29 11:07:25;;;;;;;;;2.00;2.00;;;;;-142.59;100.00;56100.38;4970766;28;49952;-70
2022/05/29 11:10:02;;;;;;;;;2.00;1.00;;;;;-142.59;100.00;56100.38;5033916;28;49843;-70
2022/05/29 11:12:59;;;;;;;;;2.00;2.00;;;;;-142.59;100.00;56100.38;5035274;28;49946;-70
2022/05/29 11:15:53;;;;;;;;;3.50;1.75;;;;;-142.59;100.00;56100.38;5017401;28;49778;-71
2022/05/29 11:18:31;;;;;;;;;1.00;1.00;;;;;-142.59;100.00;56100.38;5035590;28;49796;-70
2022/05/29 11:21:27;;;;;;;;;3.00;2.00;;;;;-142.59;100.00;56100.38;5035154;28;49889;-69
2022/05/29 11:24:09;;;;;;;;;1.75;1.75;;;;;-142.59;100.00;56100.38;5034902;28;49748;-70
2022/05/29 11:26:47;;;;;;;;;11.25;10.00;;;;;-142.59;100.00;56100.38;5035162;28;49752;-74
2022/05/29 11:29:31;;;;;;;;;65.00;52.50;;;;;-142.59;100.00;56100.38;5035168;28;49726;-70
2022/05/29 11:32:11;;;;;;;;;29.00;28.75;;;;;-142.59;100.00;56100.38;5033586;28;51794;-70
2022/05/29 11:34:49;;;;;;;;;11.25;11.25;;;;;-142.59;100.00;56100.38;5034719;28;49647;-73
2022/05/29 11:37:17;;;;;;;;;1.50;1.50;;;;;-142.59;100.00;56100.38;5034948;28;49774;-78
2022/05/29 11:39:48;;;;;;;;;2.00;0.00;;;;;-142.59;100.00;56100.38;5035316;28;49769;-68
2022/05/29 11:42:16;;;;;;;;;3.00;3.00;;;;;-142.59;100.00;56100.38;5029003;28;50648;-72
2022/05/29 11:44:58;;;;;;;;;1.00;1.00;;;;;-142.59;100.00;56100.38;5016834;28;49719;-73
2022/05/29 11:53:22;;;;;;;;;3.00;1.25;;;;;-142.59;100.00;56100.38;5019233;28;49850;-73
2022/05/29 11:55:49;;;;;;;;;1.25;1.25;;;;;-142.59;100.00;56100.38;5015576;28;49817;-73
2022/05/29 11:58:29;;;;;;;;;2.00;2.00;;;;;-142.59;100.00;56100.38;5014201;28;49757;-73
2022/05/29 12:00:54;;;;;;;;;3.00;2.00;;;;;-142.59;100.00;56100.38;5015787;28;50482;-70
2022/05/29 12:03:43;;;;;;;;;4.00;4.00;;;;;-142.59;100.00;56100.38;5015021;28;49754;-79